createdAt,value
2022-12-22T00:04:31.599Z,7.66
2022-12-22T00:14:52.500Z,7.72
2022-12-22T00:25:12.531Z,7.61
2022-12-22T00:35:33.436Z,7.42
2022-12-22T00:45:54.939Z,7.20
2022-12-22T00:56:14.919Z,7.19
2022-12-22T01:06:35.294Z,7.07
2022-12-22T01:16:55.181Z,7.08
2022-12-22T01:27:15.451Z,7.29
2022-12-22T01:37:35.653Z,7.14
2022-12-22T01:47:55.420Z,7.06
2022-12-22T01:58:15.932Z,7.31
2022-12-22T02:08:43.266Z,7.37
2022-12-22T02:19:15.515Z,7.38
2022-12-22T02:29:40.745Z,7.50
2022-12-22T02:40:21.151Z,7.57
2022-12-22T02:50:57.686Z,7.37
2022-12-22T03:01:20.080Z,7.53
2022-12-22T03:11:40.353Z,7.53
2022-12-22T03:22:00.518Z,7.58
2022-12-22T03:32:02.166Z,7.78
2022-12-22T03:42:22.777Z,7.88
2022-12-22T03:52:24.260Z,7.99
2022-12-22T04:02:25.817Z,8.13
2022-12-22T04:12:46.440Z,8.19
2022-12-22T04:22:49.713Z,8.14
2022-12-22T04:32:51.151Z,8.08
2022-12-22T04:42:55.011Z,8.01
2022-12-22T04:52:56.475Z,8.04
2022-12-22T05:02:58.111Z,7.99
2022-12-22T05:12:59.688Z,8.02
2022-12-22T05:23:01.162Z,7.78
2022-12-22T05:33:02.790Z,7.24
2022-12-22T05:43:05.625Z,6.99
2022-12-22T05:53:07.877Z,7.32
2022-12-22T06:03:11.043Z,7.48
2022-12-22T06:13:12.677Z,7.84
2022-12-22T06:23:14.251Z,8.13
2022-12-22T06:33:16.120Z,8.32
2022-12-22T06:43:17.592Z,8.49
2022-12-22T06:53:19.136Z,8.66
2022-12-22T07:03:20.756Z,8.88
2022-12-22T07:13:24.072Z,9.04
2022-12-22T07:23:26.157Z,9.19
2022-12-22T07:33:27.715Z,9.29
2022-12-22T07:43:29.584Z,9.47
2022-12-22T07:53:32.669Z,9.72
2022-12-22T08:03:35.590Z,10.25
2022-12-22T08:13:37.987Z,10.35
2022-12-22T08:23:39.816Z,11.52
2022-12-22T08:33:41.444Z,12.83
2022-12-22T08:43:42.876Z,13.24
2022-12-22T08:54:04.385Z,13.27
2022-12-22T09:04:09.287Z,13.23
2022-12-22T09:14:11.775Z,14.56
2022-12-22T09:24:13.452Z,19.14
2022-12-22T09:34:18.151Z,16.63
2022-12-22T09:44:27.641Z,14.70
2022-12-22T09:54:30.687Z,14.83
2022-12-22T10:04:52.962Z,14.69
2022-12-22T10:14:55.505Z,15.52
2022-12-22T10:25:00.553Z,15.87
2022-12-22T10:35:05.198Z,15.58
2022-12-22T10:45:08.059Z,15.60
2022-12-22T10:55:21.370Z,16.84
2022-12-22T11:05:23.022Z,16.09
2022-12-22T11:15:49.456Z,15.69
2022-12-22T11:25:58.757Z,13.90
2022-12-22T11:36:09.816Z,13.23
2022-12-22T11:46:38.724Z,13.44
2022-12-22T11:56:47.331Z,13.50
2022-12-22T12:07:00.850Z,13.78
2022-12-22T12:17:17.717Z,14.14
2022-12-22T12:27:45.921Z,14.14
2022-12-22T12:37:54.187Z,14.33
2022-12-22T12:48:24.660Z,13.87
2022-12-22T12:58:51.565Z,13.38
2022-12-22T13:19:38.024Z,13.34
2022-12-22T13:29:45.576Z,13.23
2022-12-22T13:40:14.611Z,13.33
2022-12-22T13:50:26.198Z,13.26
2022-12-22T14:00:28.753Z,13.20
2022-12-22T14:10:34.511Z,13.19
2022-12-22T14:20:38.125Z,13.34
2022-12-22T14:30:45.327Z,13.47
2022-12-22T14:40:52.517Z,13.50
2022-12-22T14:50:58.336Z,13.70
2022-12-22T15:01:15.884Z,13.71
2022-12-22T15:11:19.210Z,13.54
2022-12-22T15:21:23.150Z,13.26
2022-12-22T15:31:24.699Z,13.00
2022-12-22T15:41:26.312Z,12.79
2022-12-22T15:51:29.762Z,12.61
2022-12-22T16:01:31.375Z,12.44
2022-12-22T16:11:33.019Z,12.40
2022-12-22T16:21:34.615Z,12.58
2022-12-22T16:31:36.364Z,12.43
2022-12-22T16:41:37.899Z,12.48
2022-12-22T16:51:49.263Z,12.79
2022-12-22T17:01:53.996Z,12.83
2022-12-22T17:12:01.019Z,13.03
2022-12-22T17:22:02.577Z,12.88
2022-12-22T17:32:04.471Z,12.97
2022-12-22T17:42:32.208Z,12.87
2022-12-22T17:52:34.886Z,12.78
2022-12-22T18:02:36.872Z,12.71
2022-12-22T18:12:39.899Z,12.49
2022-12-22T18:22:41.886Z,12.43
2022-12-22T18:32:43.401Z,12.48
2022-12-22T18:42:44.874Z,12.14
2022-12-22T18:52:47.849Z,11.80
2022-12-22T19:02:52.129Z,11.74
2022-12-22T19:12:56.321Z,11.69
2022-12-22T19:23:00.250Z,11.55
2022-12-22T19:33:03.549Z,11.49
2022-12-22T19:43:05.233Z,11.39
2022-12-22T19:53:06.742Z,11.52
2022-12-22T20:03:12.576Z,11.57
2022-12-22T20:13:18.745Z,11.46
2022-12-22T20:23:23.744Z,11.31
2022-12-22T20:33:26.613Z,11.40
2022-12-22T20:43:30.409Z,11.67
2022-12-22T20:53:32.300Z,11.69
2022-12-22T21:03:33.825Z,11.77
2022-12-22T21:13:35.344Z,11.79
2022-12-22T21:23:36.900Z,11.86
2022-12-22T21:33:38.351Z,11.96
2022-12-22T21:43:39.816Z,11.96
2022-12-22T21:53:41.317Z,11.87
2022-12-22T22:03:42.913Z,11.96
2022-12-22T22:13:44.507Z,12.00
2022-12-22T22:23:46.124Z,11.98
2022-12-22T22:33:50.755Z,12.06
2022-12-22T22:43:55.479Z,12.08
2022-12-22T22:53:56.905Z,12.13
2022-12-22T23:03:58.683Z,12.19
2022-12-22T23:14:00.433Z,12.28
2022-12-22T23:24:02.052Z,12.31
2022-12-22T23:34:03.935Z,12.29
2022-12-22T23:44:05.455Z,12.36
2022-12-22T23:54:06.910Z,12.46
